createdAt,value
2023-02-11T10:54:30.882Z,21.83
2023-02-11T10:56:59.838Z,24.40
2023-02-11T10:59:28.292Z,27.67
2023-02-11T11:02:00.535Z,26.55
2023-02-11T11:04:33.731Z,18.77
2023-02-11T11:07:16.802Z,27.73
2023-02-11T11:09:50.844Z,27.73
2023-02-11T11:12:46.391Z,26.35
2023-02-11T11:15:25.659Z,21.90
2023-02-11T11:18:21.482Z,21.45
2023-02-11T11:21:13.499Z,19.00
2023-02-11T11:23:40.466Z,24.85
2023-02-11T11:26:13.046Z,20.20
2023-02-11T11:28:46.714Z,17.48
2023-02-11T11:31:24.184Z,10.30
2023-02-11T11:33:54.254Z,23.95
2023-02-11T11:36:23.817Z,21.13
2023-02-11T11:39:00.510Z,15.52
2023-02-11T11:41:30.743Z,18.70
2023-02-11T11:44:21.279Z,22.23
2023-02-11T11:46:51.176Z,17.98
2023-02-11T11:49:23.462Z,21.23
2023-02-11T11:52:18.598Z,15.77
2023-02-11T11:57:21.732Z,19.77
2023-02-11T11:59:48.664Z,19.65
2023-02-11T12:02:18.286Z,13.23
2023-02-11T12:04:50.825Z,17.20
2023-02-11T12:07:54.526Z,12.88
2023-02-11T12:10:56.634Z,15.98
2023-02-11T12:13:40.866Z,20.52
2023-02-11T12:16:26.066Z,19.73
2023-02-11T12:19:07.792Z,12.88
2023-02-11T12:22:03.156Z,16.20
2023-02-11T12:24:42.116Z,19.25
2023-02-11T12:27:28.109Z,18.70
2023-02-11T12:30:07.961Z,18.33
2023-02-11T12:32:47.202Z,19.77
2023-02-11T12:35:38.538Z,18.65
2023-02-11T12:38:29.799Z,19.70
2023-02-11T12:42:03.640Z,19.65
2023-02-11T12:44:52.075Z,18.83
2023-02-11T12:47:44.707Z,22.45
2023-02-11T12:50:24.782Z,15.60
2023-02-11T12:53:16.015Z,17.80
2023-02-11T12:55:46.979Z,14.00
2023-02-11T12:58:19.924Z,14.73
2023-02-11T13:01:01.817Z,9.73
2023-02-11T13:03:56.915Z,16.92
2023-02-11T13:09:04.814Z,15.95
2023-02-11T13:11:44.503Z,12.45
2023-02-11T13:14:21.983Z,15.68
2023-02-11T13:16:50.786Z,16.42
2023-02-11T13:19:31.602Z,14.98
2023-02-11T13:22:17.451Z,7.78
2023-02-11T13:24:58.234Z,15.32
2023-02-11T13:27:48.379Z,13.82
2023-02-11T13:30:34.667Z,15.57
2023-02-11T13:33:01.547Z,15.73
2023-02-11T13:35:31.292Z,13.38
2023-02-11T13:37:59.829Z,15.90
2023-02-11T13:40:32.305Z,15.05
2023-02-11T13:43:01.269Z,14.02
2023-02-11T13:45:37.515Z,9.65
2023-02-11T13:48:13.591Z,8.10
2023-02-11T13:50:50.933Z,11.60
2023-02-11T13:53:19.032Z,10.13
2023-02-11T13:55:49.819Z,7.15
2023-02-11T13:58:27.489Z,11.13
2023-02-11T14:00:54.730Z,8.80
2023-02-11T14:03:49.406Z,12.63
2023-02-11T14:06:38.398Z,3.40
2023-02-11T14:09:07.852Z,7.22
2023-02-11T14:11:40.615Z,8.88
2023-02-11T14:14:18.660Z,11.77
2023-02-11T14:17:03.409Z,6.15
2023-02-11T14:19:50.615Z,7.75
2023-02-11T14:22:43.521Z,10.65
2023-02-11T14:25:21.474Z,6.03
2023-02-11T14:28:00.685Z,8.05
2023-02-11T14:30:42.873Z,9.05
2023-02-11T14:33:49.316Z,8.68
2023-02-11T14:36:53.600Z,4.68
2023-02-11T14:39:47.286Z,8.38
2023-02-11T14:42:19.910Z,8.00
2023-02-11T14:44:52.501Z,8.52
2023-02-11T14:47:23.921Z,6.78
2023-02-11T14:49:50.851Z,8.65
2023-02-11T14:52:37.365Z,6.80
2023-02-11T14:55:19.389Z,7.07
2023-02-11T14:57:49.411Z,6.97
2023-02-11T15:00:22.049Z,9.45
2023-02-11T15:02:48.911Z,6.88
2023-02-11T15:05:23.619Z,10.35
2023-02-11T15:07:53.639Z,10.50
2023-02-11T15:10:32.625Z,8.90
2023-02-11T15:13:01.152Z,6.90
2023-02-11T15:15:29.220Z,8.93
2023-02-11T15:18:00.868Z,8.68
2023-02-11T15:20:32.029Z,7.88
2023-02-11T15:23:03.011Z,10.23
2023-02-11T15:25:31.785Z,7.25
2023-02-11T15:28:00.573Z,6.22
2023-02-11T15:30:30.708Z,9.25
2023-02-11T15:33:00.553Z,7.88
2023-02-11T15:35:30.284Z,9.02
2023-02-11T15:37:58.733Z,12.75
2023-02-11T15:40:29.432Z,13.40
2023-02-11T15:43:07.642Z,7.50
2023-02-11T15:45:52.983Z,8.93
2023-02-11T15:48:38.524Z,8.57
2023-02-11T15:51:29.845Z,13.90
2023-02-11T15:54:03.462Z,8.55
2023-02-11T15:56:44.757Z,10.27
2023-02-11T15:59:25.746Z,11.50
2023-02-11T16:01:53.736Z,8.60
2023-02-11T16:04:24.409Z,7.88
2023-02-11T16:06:51.578Z,11.23
2023-02-11T16:09:34.569Z,9.27
2023-02-11T16:12:04.489Z,8.68
2023-02-11T16:14:37.096Z,7.85
2023-02-11T16:17:08.777Z,10.50
2023-02-11T16:19:36.513Z,13.23
2023-02-11T16:22:10.634Z,11.77
2023-02-11T16:24:38.793Z,8.70
2023-02-11T16:27:18.368Z,11.07
2023-02-11T16:29:48.969Z,9.45
2023-02-11T16:32:20.966Z,8.80
2023-02-11T16:34:48.057Z,8.68
2023-02-11T16:37:14.988Z,7.43
2023-02-11T16:39:42.020Z,9.55
2023-02-11T16:42:12.758Z,11.55
2023-02-11T16:44:39.397Z,9.02
2023-02-11T16:47:16.801Z,10.68
2023-02-11T16:49:43.635Z,8.60
2023-02-11T16:52:15.330Z,8.35
2023-02-11T16:54:42.861Z,11.55
2023-02-11T16:57:14.735Z,10.32
2023-02-11T16:59:41.646Z,10.10
2023-02-11T17:02:24.180Z,10.48
2023-02-11T17:04:53.617Z,8.77
2023-02-11T17:07:20.360Z,7.75
2023-02-11T17:09:46.928Z,10.07
2023-02-11T17:12:13.672Z,10.80
2023-02-11T17:14:40.655Z,13.60
2023-02-11T17:17:08.105Z,12.10
2023-02-11T17:19:34.771Z,11.73
2023-02-11T17:22:01.446Z,11.95
2023-02-11T17:24:28.253Z,13.02
2023-02-11T17:26:54.982Z,11.57
2023-02-11T17:29:23.606Z,14.60
2023-02-11T17:31:51.984Z,11.13
2023-02-11T17:34:19.844Z,12.40
2023-02-11T17:36:46.945Z,10.02
2023-02-11T17:39:13.637Z,13.60
2023-02-11T17:41:41.191Z,8.27
2023-02-11T17:44:10.906Z,8.93
2023-02-11T17:46:37.564Z,13.35
2023-02-11T17:49:04.513Z,11.68
2023-02-11T17:51:33.766Z,13.20
2023-02-11T17:54:11.955Z,14.32
2023-02-11T17:56:39.309Z,8.00
2023-02-11T17:59:08.322Z,9.60
2023-02-11T18:01:36.550Z,13.30
2023-02-11T18:04:03.559Z,12.75
2023-02-11T18:06:31.880Z,11.23
2023-02-11T18:08:59.825Z,11.63
2023-02-11T18:11:27.875Z,12.05
2023-02-11T18:13:54.735Z,14.13
2023-02-11T18:16:23.422Z,12.45
2023-02-11T18:18:50.595Z,10.98
2023-02-11T18:21:20.266Z,15.18
2023-02-11T18:23:47.251Z,11.13
2023-02-11T18:26:15.769Z,13.13
2023-02-11T18:28:45.623Z,13.07
2023-02-11T18:31:14.022Z,11.70
2023-02-11T18:33:41.878Z,11.48
2023-02-11T18:36:14.191Z,11.95
2023-02-11T18:38:41.885Z,13.82
2023-02-11T18:41:08.592Z,12.27
2023-02-11T18:43:35.753Z,14.52
2023-02-11T18:46:07.069Z,13.02
2023-02-11T18:48:33.740Z,12.93
2023-02-11T18:51:00.646Z,12.05
2023-02-11T18:53:27.400Z,17.48
2023-02-11T18:55:54.902Z,13.98
2023-02-11T18:58:21.823Z,13.60
2023-02-11T19:00:50.165Z,13.00
2023-02-11T19:03:17.362Z,14.30
2023-02-11T19:05:45.954Z,11.98
2023-02-11T19:08:13.449Z,13.13
2023-02-11T19:10:45.099Z,12.80
2023-02-11T19:13:12.260Z,18.33
2023-02-11T19:15:46.231Z,11.73
2023-02-11T19:18:14.491Z,17.65
2023-02-11T19:20:44.544Z,14.70
2023-02-11T19:23:11.360Z,14.35
2023-02-11T19:25:44.381Z,15.05
2023-02-11T19:28:11.072Z,11.32
2023-02-11T19:30:37.999Z,12.48
2023-02-11T19:33:04.694Z,15.15
2023-02-11T19:35:35.570Z,14.73
2023-02-11T19:38:03.644Z,14.13
2023-02-11T19:40:31.069Z,15.90
2023-02-11T19:42:57.836Z,13.68
2023-02-11T19:45:25.039Z,16.23
2023-02-11T19:47:56.039Z,34.92
2023-02-11T19:50:23.415Z,31.98
2023-02-11T19:52:50.198Z,19.35
2023-02-11T19:55:16.949Z,20.88
2023-02-11T19:57:43.721Z,15.27
2023-02-11T20:00:11.479Z,15.77
2023-02-11T20:02:39.491Z,13.77
2023-02-11T20:05:07.028Z,18.17
2023-02-11T20:07:33.631Z,14.25
2023-02-11T20:10:00.272Z,14.93
2023-02-11T20:12:27.029Z,15.77
2023-02-11T20:14:53.810Z,19.98
2023-02-11T20:17:20.461Z,13.50
2023-02-11T20:19:47.078Z,14.63
2023-02-11T20:22:13.665Z,12.80
2023-02-11T20:24:40.333Z,17.33
2023-02-11T20:27:08.418Z,15.75
2023-02-11T20:29:35.149Z,18.73
2023-02-11T20:32:03.240Z,17.98
2023-02-11T20:34:29.985Z,15.00
2023-02-11T20:36:57.064Z,17.92
2023-02-11T20:39:27.576Z,18.73
2023-02-11T20:41:54.772Z,16.42
2023-02-11T20:44:22.322Z,17.40
2023-02-11T20:46:49.548Z,17.10
2023-02-11T20:49:19.277Z,13.60
2023-02-11T20:51:46.573Z,19.27
2023-02-11T20:54:15.808Z,19.73
2023-02-11T20:56:42.587Z,16.02
2023-02-11T20:59:09.767Z,17.60
2023-02-11T21:01:40.745Z,16.58
2023-02-11T21:04:12.186Z,12.68
2023-02-11T21:06:42.566Z,15.00
2023-02-11T21:09:13.079Z,18.10
2023-02-11T21:11:39.925Z,18.95
2023-02-11T21:14:07.185Z,23.00
2023-02-11T21:16:33.983Z,17.35
2023-02-11T21:19:01.157Z,15.77
2023-02-11T21:21:27.832Z,23.90
2023-02-11T21:23:56.018Z,18.77
2023-02-11T21:26:23.123Z,14.45
2023-02-11T21:28:50.061Z,21.33
2023-02-11T21:31:20.837Z,16.25
2023-02-11T21:33:48.491Z,15.95
2023-02-11T21:36:15.312Z,16.85
2023-02-11T21:38:42.362Z,14.45
2023-02-11T21:41:09.256Z,16.40
2023-02-11T21:43:35.832Z,17.17
2023-02-11T21:46:08.619Z,18.60
2023-02-11T21:48:35.302Z,16.63
2023-02-11T21:51:06.427Z,17.23
2023-02-11T21:53:34.067Z,20.25
2023-02-11T21:56:09.686Z,19.13
2023-02-11T21:58:36.914Z,21.52
2023-02-11T22:01:17.645Z,15.77
2023-02-11T22:03:45.807Z,16.83
2023-02-11T22:06:16.195Z,16.83
2023-02-11T22:08:43.132Z,20.48
2023-02-11T22:11:12.265Z,22.55
2023-02-11T22:13:40.069Z,32.90
2023-02-11T22:16:09.765Z,19.33
2023-02-11T22:18:37.203Z,16.98
2023-02-11T22:21:16.201Z,16.58
2023-02-11T22:23:43.099Z,20.02
2023-02-11T22:26:13.264Z,16.63
2023-02-11T22:28:40.913Z,20.15
2023-02-11T22:31:13.244Z,17.83
2023-02-11T22:33:40.437Z,20.02
2023-02-11T22:36:12.032Z,15.07
2023-02-11T22:38:38.699Z,14.32
2023-02-11T22:41:07.912Z,16.67
2023-02-11T22:43:34.967Z,16.08
2023-02-11T22:46:03.653Z,17.35
2023-02-11T22:48:30.300Z,17.70
2023-02-11T22:50:57.139Z,20.27
2023-02-11T22:53:25.511Z,20.17
2023-02-11T22:55:52.630Z,16.42
2023-02-11T22:58:19.442Z,16.13
2023-02-11T23:00:46.044Z,17.17
2023-02-11T23:03:13.352Z,23.08
2023-02-11T23:05:43.262Z,17.88
2023-02-11T23:08:12.046Z,19.00
2023-02-11T23:10:39.776Z,15.10
2023-02-11T23:13:07.740Z,12.70
2023-02-11T23:15:34.555Z,16.13
2023-02-11T23:18:01.233Z,15.85
2023-02-11T23:20:27.961Z,15.25
2023-02-11T23:22:55.008Z,19.58
2023-02-11T23:25:21.623Z,20.65
2023-02-11T23:27:48.225Z,16.13
2023-02-11T23:30:14.995Z,20.42
2023-02-11T23:32:41.625Z,18.95
2023-02-11T23:35:08.499Z,16.95
2023-02-11T23:37:35.149Z,13.90
2023-02-11T23:40:01.868Z,18.65
2023-02-11T23:42:29.224Z,20.98
2023-02-11T23:44:55.862Z,15.68
2023-02-11T23:47:23.513Z,17.85
2023-02-11T23:49:50.241Z,22.90
2023-02-11T23:52:17.653Z,22.63
2023-02-11T23:54:45.538Z,18.95
2023-02-11T23:57:12.276Z,17.88
2023-02-11T23:59:39.059Z,19.83
